sensor_id;sensor_type;location;lat;lon;timestamp;pressure;altitude;pressure_sealevel;temperature;humidity
15604;BME280;7902;49.042;9.092;2024-02-15T00:00:06;99555.72;;;13.57;62.83
15604;BME280;7902;49.042;9.092;2024-02-15T00:02:33;99554.78;;;13.58;63.21
15604;BME280;7902;49.042;9.092;2024-02-15T00:04:59;99552.03;;;13.60;62.52
15604;BME280;7902;49.042;9.092;2024-02-15T00:07:25;99552.03;;;13.60;62.29
15604;BME280;7902;49.042;9.092;2024-02-15T00:09:52;99551.19;;;13.59;62.83
15604;BME280;7902;49.042;9.092;2024-02-15T00:12:19;99553.59;;;13.62;62.15
15604;BME280;7902;49.042;9.092;2024-02-15T00:14:45;99559.94;;;13.60;62.22
15604;BME280;7902;49.042;9.092;2024-02-15T00:17:11;99550.94;;;13.62;62.14
15604;BME280;7902;49.042;9.092;2024-02-15T00:19:37;99554.53;;;13.61;62.24
15604;BME280;7902;49.042;9.092;2024-02-15T00:22:05;99551.91;;;13.61;62.98
15604;BME280;7902;49.042;9.092;2024-02-15T00:24:31;99551.91;;;13.61;62.41
15604;BME280;7902;49.042;9.092;2024-02-15T00:26:57;99547.59;;;13.60;62.10
15604;BME280;7902;49.042;9.092;2024-02-15T00:29:23;99538.69;;;13.61;62.88
15604;BME280;7902;49.042;9.092;2024-02-15T00:31:50;99543.97;;;13.61;62.24
15604;BME280;7902;49.042;9.092;2024-02-15T00:34:16;99540.50;;;13.61;62.55
15604;BME280;7902;49.042;9.092;2024-02-15T00:36:43;99549.41;;;13.60;62.93
15604;BME280;7902;49.042;9.092;2024-02-15T00:39:10;99551.19;;;13.59;63.26
15604;BME280;7902;49.042;9.092;2024-02-15T00:41:37;99546.75;;;13.60;62.91
15604;BME280;7902;49.042;9.092;2024-02-15T00:44:10;99539.78;;;13.59;62.82
15604;BME280;7902;49.042;9.092;2024-02-15T00:46:36;99539.06;;;13.57;63.07
15604;BME280;7902;49.042;9.092;2024-02-15T00:49:03;99544.69;;;13.52;63.29
15604;BME280;7902;49.042;9.092;2024-02-15T00:51:35;99540.16;;;13.54;62.97
15604;BME280;7902;49.042;9.092;2024-02-15T00:54:04;99539.19;;;13.55;62.71
15604;BME280;7902;49.042;9.092;2024-02-15T00:56:31;99540.25;;;13.53;63.54
15604;BME280;7902;49.042;9.092;2024-02-15T00:59:01;99534.13;;;13.52;63.32
15604;BME280;7902;49.042;9.092;2024-02-15T01:01:26;99534.13;;;13.52;63.10
15604;BME280;7902;49.042;9.092;2024-02-15T01:03:52;99531.50;;;13.52;62.79
15604;BME280;7902;49.042;9.092;2024-02-15T01:06:18;99540.38;;;13.51;62.89
15604;BME280;7902;49.042;9.092;2024-02-15T01:08:44;99537.97;;;13.48;63.91
15604;BME280;7902;49.042;9.092;2024-02-15T01:11:10;99532.81;;;13.47;63.21
15604;BME280;7902;49.042;9.092;2024-02-15T01:13:36;99532.47;;;13.51;63.23
15604;BME280;7902;49.042;9.092;2024-02-15T01:16:03;99531.50;;;13.52;63.48
15604;BME280;7902;49.042;9.092;2024-02-15T01:18:30;99529.81;;;13.51;63.32
15604;BME280;7902;49.042;9.092;2024-02-15T01:21:00;99532.22;;;13.43;64.45
15604;BME280;7902;49.042;9.092;2024-02-15T01:23:26;99534.63;;;13.46;65.01
15604;BME280;7902;49.042;9.092;2024-02-15T01:25:52;99530.19;;;13.47;65.08
15604;BME280;7902;49.042;9.092;2024-02-15T01:28:18;99526.94;;;13.43;64.44
15604;BME280;7902;49.042;9.092;2024-02-15T01:30:45;99533.56;;;13.49;64.75
15604;BME280;7902;49.042;9.092;2024-02-15T01:33:11;99529.38;;;13.46;65.09
15604;BME280;7902;49.042;9.092;2024-02-15T01:35:37;99529.38;;;13.46;65.00
15604;BME280;7902;49.042;9.092;2024-02-15T01:38:05;99530.19;;;13.47;64.97
15604;BME280;7902;49.042;9.092;2024-02-15T01:40:31;99533.16;;;13.42;65.74
15604;BME280;7902;49.042;9.092;2024-02-15T01:42:57;99529.22;;;13.37;65.25
15604;BME280;7902;49.042;9.092;2024-02-15T01:45:24;99534.25;;;13.40;65.44
15604;BME280;7902;49.042;9.092;2024-02-15T01:47:52;99527.91;;;13.42;65.28
15604;BME280;7902;49.042;9.092;2024-02-15T01:50:18;99517.34;;;13.42;64.91
15604;BME280;7902;49.042;9.092;2024-02-15T01:52:47;99524.31;;;13.43;64.71
15604;BME280;7902;49.042;9.092;2024-02-15T01:55:15;99523.59;;;13.41;65.57
15604;BME280;7902;49.042;9.092;2024-02-15T01:57:45;99518.53;;;13.38;65.08
15604;BME280;7902;49.042;9.092;2024-02-15T02:00:12;99520.47;;;13.47;64.49
15604;BME280;7902;49.042;9.092;2024-02-15T02:02:39;99519.41;;;13.50;63.71
15604;BME280;7902;49.042;9.092;2024-02-15T02:05:07;99517.13;;;13.45;64.71
15604;BME280;7902;49.042;9.092;2024-02-15T02:07:33;99521.31;;;13.48;64.32
15604;BME280;7902;49.042;9.092;2024-02-15T02:10:00;99520.25;;;13.50;64.31
15604;BME280;7902;49.042;9.092;2024-02-15T02:12:26;99524.31;;;13.54;63.93
15604;BME280;7902;49.042;9.092;2024-02-15T02:14:54;99520.84;;;13.54;63.83
15604;BME280;7902;49.042;9.092;2024-02-15T02:17:20;99520.59;;;13.46;63.87
15604;BME280;7902;49.042;9.092;2024-02-15T02:19:47;99509.69;;;13.39;64.81
15604;BME280;7902;49.042;9.092;2024-02-15T02:22:16;99518.06;;;13.33;65.00
15604;BME280;7902;49.042;9.092;2024-02-15T02:25:05;99512.78;;;13.22;66.21
15604;BME280;7902;49.042;9.092;2024-02-15T02:27:35;99516.25;;;13.34;65.44
15604;BME280;7902;49.042;9.092;2024-02-15T02:30:05;99515.91;;;13.38;65.47
15604;BME280;7902;49.042;9.092;2024-02-15T02:32:35;99514.09;;;13.39;64.02
15604;BME280;7902;49.042;9.092;2024-02-15T02:35:02;99512.56;;;13.36;65.41
15604;BME280;7902;49.042;9.092;2024-02-15T02:37:29;99502.00;;;13.36;65.67
15604;BME280;7902;49.042;9.092;2024-02-15T02:39:55;99510.41;;;13.30;65.83
15604;BME280;7902;49.042;9.092;2024-02-15T02:42:21;99508.50;;;13.32;65.12
15604;BME280;7902;49.042;9.092;2024-02-15T02:44:47;99501.16;;;13.36;65.06
15604;BME280;7902;49.042;9.092;2024-02-15T02:47:13;99514.00;;;13.40;65.21
15604;BME280;7902;49.042;9.092;2024-02-15T02:49:39;99505.13;;;13.41;64.95
15604;BME280;7902;49.042;9.092;2024-02-15T02:52:05;99514.00;;;13.40;64.95
15604;BME280;7902;49.042;9.092;2024-02-15T02:54:31;99506.09;;;13.40;64.88
15604;BME280;7902;49.042;9.092;2024-02-15T02:56:57;99511.25;;;13.42;64.13
15604;BME280;7902;49.042;9.092;2024-02-15T02:59:23;99507.78;;;13.41;64.71
15604;BME280;7902;49.042;9.092;2024-02-15T03:01:49;99503.56;;;13.39;64.52
15604;BME280;7902;49.042;9.092;2024-02-15T03:04:15;99506.09;;;13.40;65.08
15604;BME280;7902;49.042;9.092;2024-02-15T03:06:43;99499.97;;;13.40;64.38
15604;BME280;7902;49.042;9.092;2024-02-15T03:09:10;99490.63;;;13.36;65.08
15604;BME280;7902;49.042;9.092;2024-02-15T03:11:36;99492.41;;;13.35;64.91
15604;BME280;7902;49.042;9.092;2024-02-15T03:14:02;99494.31;;;13.33;65.57
15604;BME280;7902;49.042;9.092;2024-02-15T03:16:31;99492.31;;;13.37;65.37
15604;BME280;7902;49.042;9.092;2024-02-15T03:18:57;99487.50;;;13.31;65.56
15604;BME280;7902;49.042;9.092;2024-02-15T03:21:23;99488.34;;;13.31;64.76
15604;BME280;7902;49.042;9.092;2024-02-15T03:23:49;99486.19;;;13.36;64.90
15604;BME280;7902;49.042;9.092;2024-02-15T03:26:15;99490.03;;;13.32;65.43
15604;BME280;7902;49.042;9.092;2024-02-15T03:28:41;99488.56;;;13.39;64.68
15604;BME280;7902;49.042;9.092;2024-02-15T03:31:08;99483.66;;;13.35;65.16
15604;BME280;7902;49.042;9.092;2024-02-15T03:33:34;99486.28;;;13.35;65.04
15604;BME280;7902;49.042;9.092;2024-02-15T03:36:00;99488.56;;;13.39;64.93
15604;BME280;7902;49.042;9.092;2024-02-15T03:38:27;99486.28;;;13.35;64.76
15604;BME280;7902;49.042;9.092;2024-02-15T03:40:55;99477.06;;;13.40;65.18
15604;BME280;7902;49.042;9.092;2024-02-15T03:43:21;99478.88;;;13.40;64.89
15604;BME280;7902;49.042;9.092;2024-02-15T03:45:49;99490.38;;;13.39;64.92
15604;BME280;7902;49.042;9.092;2024-02-15T03:48:15;99496.38;;;13.41;64.93
15604;BME280;7902;49.042;9.092;2024-02-15T03:50:41;99490.97;;;13.42;64.46
15604;BME280;7902;49.042;9.092;2024-02-15T03:53:09;99496.25;;;13.42;64.31
15604;BME280;7902;49.042;9.092;2024-02-15T03:55:36;99506.09;;;13.40;64.42
15604;BME280;7902;49.042;9.092;2024-02-15T03:58:02;99506.09;;;13.40;64.44
15604;BME280;7902;49.042;9.092;2024-02-15T04:00:28;99512.06;;;13.42;64.42
15604;BME280;7902;49.042;9.092;2024-02-15T04:02:55;99508.47;;;13.43;64.23
15604;BME280;7902;49.042;9.092;2024-02-15T04:05:22;99509.56;;;13.41;64.68
15604;BME280;7902;49.042;9.092;2024-02-15T04:07:48;99507.78;;;13.41;64.73
15604;BME280;7902;49.042;9.092;2024-02-15T04:10:15;99508.72;;;13.40;64.40
15604;BME280;7902;49.042;9.092;2024-02-15T04:12:43;99506.78;;;13.42;63.90
15604;BME280;7902;49.042;9.092;2024-02-15T04:15:09;99510.16;;;13.44;64.42
15604;BME280;7902;49.042;9.092;2024-02-15T04:17:41;99509.44;;;13.42;64.24
15604;BME280;7902;49.042;9.092;2024-02-15T04:20:09;99504.88;;;13.44;64.36
15604;BME280;7902;49.042;9.092;2024-02-15T04:22:35;99505.97;;;13.42;64.49
15604;BME280;7902;49.042;9.092;2024-02-15T04:25:07;99506.56;;;13.45;64.99
15604;BME280;7902;49.042;9.092;2024-02-15T04:27:44;99497.94;;;13.43;64.42
15604;BME280;7902;49.042;9.092;2024-02-15T04:30:10;99496.03;;;13.45;64.16
15604;BME280;7902;49.042;9.092;2024-02-15T04:32:36;99496.03;;;13.45;64.13
15604;BME280;7902;49.042;9.092;2024-02-15T04:35:02;99492.78;;;13.42;64.02
15604;BME280;7902;49.042;9.092;2024-02-15T04:37:29;99503.09;;;13.45;64.84
15604;BME280;7902;49.042;9.092;2024-02-15T04:39:55;99493.50;;;13.44;64.55
15604;BME280;7902;49.042;9.092;2024-02-15T04:42:22;99499.38;;;13.47;64.69
15604;BME280;7902;49.042;9.092;2024-02-15T04:44:48;99497.81;;;13.45;64.24
15604;BME280;7902;49.042;9.092;2024-02-15T04:47:17;99494.34;;;13.44;63.91
15604;BME280;7902;49.042;9.092;2024-02-15T04:49:43;99489.06;;;13.44;64.63
15604;BME280;7902;49.042;9.092;2024-02-15T04:52:10;99489.06;;;13.44;64.45
15604;BME280;7902;49.042;9.092;2024-02-15T04:54:35;99486.53;;;13.43;64.02
15604;BME280;7902;49.042;9.092;2024-02-15T04:57:01;99483.06;;;13.42;64.29
15604;BME280;7902;49.042;9.092;2024-02-15T04:59:27;99483.78;;;13.44;64.32
15604;BME280;7902;49.042;9.092;2024-02-15T05:01:55;99482.84;;;13.45;64.84
15604;BME280;7902;49.042;9.092;2024-02-15T05:04:23;99476.81;;;13.43;64.03
15604;BME280;7902;49.042;9.092;2024-02-15T05:06:50;99478.97;;;13.38;64.97
15604;BME280;7902;49.042;9.092;2024-02-15T05:09:16;99475.03;;;13.44;64.50
15604;BME280;7902;49.042;9.092;2024-02-15T05:11:44;99478.50;;;13.44;64.61
15604;BME280;7902;49.042;9.092;2024-02-15T05:14:12;99470.47;;;13.46;64.69
15604;BME280;7902;49.042;9.092;2024-02-15T05:16:38;99469.84;;;13.42;64.63
15604;BME280;7902;49.042;9.092;2024-02-15T05:19:09;99476.59;;;13.46;64.23
15604;BME280;7902;49.042;9.092;2024-02-15T05:21:37;99463.41;;;13.46;64.92
15604;BME280;7902;49.042;9.092;2024-02-15T05:24:06;99464.22;;;13.47;64.23
15604;BME280;7902;49.042;9.092;2024-02-15T05:26:32;99471.31;;;13.46;64.81
15604;BME280;7902;49.042;9.092;2024-02-15T05:28:58;99467.69;;;13.47;64.79
15604;BME280;7902;49.042;9.092;2024-02-15T05:31:24;99466.84;;;13.47;64.39
15604;BME280;7902;49.042;9.092;2024-02-15T05:33:53;99464.94;;;13.49;64.27
15604;BME280;7902;49.042;9.092;2024-02-15T05:36:21;99471.06;;;13.49;64.71
15604;BME280;7902;49.042;9.092;2024-02-15T05:38:52;99472.97;;;13.47;64.66
15604;BME280;7902;49.042;9.092;2024-02-15T05:41:19;99466.28;;;13.43;64.50
15604;BME280;7902;49.042;9.092;2024-02-15T05:43:47;99469.75;;;13.44;64.88
15604;BME280;7902;49.042;9.092;2024-02-15T05:46:17;99468.91;;;13.43;65.07
15604;BME280;7902;49.042;9.092;2024-02-15T05:48:43;99471.31;;;13.46;64.95
15604;BME280;7902;49.042;9.092;2024-02-15T05:51:10;99472.00;;;13.37;65.03
15604;BME280;7902;49.042;9.092;2024-02-15T05:53:36;99468.56;;;13.37;65.33
15604;BME280;7902;49.042;9.092;2024-02-15T05:56:05;99475.75;;;13.35;64.70
15604;BME280;7902;49.042;9.092;2024-02-15T05:58:36;99478.97;;;13.38;65.41
15604;BME280;7902;49.042;9.092;2024-02-15T06:01:03;99476.22;;;13.29;66.02
15604;BME280;7902;49.042;9.092;2024-02-15T06:03:33;99468.94;;;13.32;65.67
15604;BME280;7902;49.042;9.092;2024-02-15T06:06:00;99472.25;;;13.34;65.14
15604;BME280;7902;49.042;9.092;2024-02-15T06:08:28;99470.09;;;13.28;66.08
15604;BME280;7902;49.042;9.092;2024-02-15T06:10:56;99471.44;;;13.34;65.26
15604;BME280;7902;49.042;9.092;2024-02-15T06:13:23;99472.25;;;13.34;65.84
15604;BME280;7902;49.042;9.092;2024-02-15T06:15:50;99477.28;;;13.37;65.15
15604;BME280;7902;49.042;9.092;2024-02-15T06:18:27;99474.78;;;13.36;65.76
15604;BME280;7902;49.042;9.092;2024-02-15T06:20:55;99473.59;;;13.40;65.77
15604;BME280;7902;49.042;9.092;2024-02-15T06:23:23;99473.84;;;13.37;65.04
15604;BME280;7902;49.042;9.092;2024-02-15T06:25:51;99475.63;;;13.36;65.72
15604;BME280;7902;49.042;9.092;2024-02-15T06:28:21;99477.53;;;13.34;65.65
15604;BME280;7902;49.042;9.092;2024-02-15T06:31:09;99477.44;;;13.36;65.94
15604;BME280;7902;49.042;9.092;2024-02-15T06:33:54;99474.66;;;13.37;65.14
15604;BME280;7902;49.042;9.092;2024-02-15T06:36:48;99474.53;;;13.39;65.20
15604;BME280;7902;49.042;9.092;2024-02-15T06:39:33;99478.75;;;13.41;65.06
15604;BME280;7902;49.042;9.092;2024-02-15T06:42:16;99480.41;;;13.42;65.13
15604;BME280;7902;49.042;9.092;2024-02-15T06:44:44;99473.47;;;13.41;65.51
15604;BME280;7902;49.042;9.092;2024-02-15T06:47:11;99475.28;;;13.41;65.55
15604;BME280;7902;49.042;9.092;2024-02-15T06:49:40;99477.91;;;13.41;65.64
15604;BME280;7902;49.042;9.092;2024-02-15T06:52:10;99481.63;;;13.38;65.75
15604;BME280;7902;49.042;9.092;2024-02-15T06:54:38;99484.03;;;13.41;65.08
15604;BME280;7902;49.042;9.092;2024-02-15T06:57:05;99478.97;;;13.38;64.70
15604;BME280;7902;49.042;9.092;2024-02-15T06:59:31;99476.81;;;13.43;65.48
15604;BME280;7902;49.042;9.092;2024-02-15T07:01:58;99470.47;;;13.46;64.83
15604;BME280;7902;49.042;9.092;2024-02-15T07:04:24;99473.81;;;13.48;64.18
15604;BME280;7902;49.042;9.092;2024-02-15T07:06:53;99475.88;;;13.44;64.82
15604;BME280;7902;49.042;9.092;2024-02-15T07:09:23;99475.63;;;13.47;64.15
15604;BME280;7902;49.042;9.092;2024-02-15T07:11:50;99474.66;;;13.48;64.72
15604;BME280;7902;49.042;9.092;2024-02-15T07:14:16;99469.75;;;13.44;65.12
15604;BME280;7902;49.042;9.092;2024-02-15T07:16:46;99464.22;;;13.47;64.96
15604;BME280;7902;49.042;9.092;2024-02-15T07:19:13;99467.84;;;13.46;64.98
15604;BME280;7902;49.042;9.092;2024-02-15T07:21:40;99473.22;;;13.44;64.28
15604;BME280;7902;49.042;9.092;2024-02-15T07:24:05;99472.13;;;13.47;64.51
15604;BME280;7902;49.042;9.092;2024-02-15T07:26:31;99462.31;;;13.38;65.27
15604;BME280;7902;49.042;9.092;2024-02-15T07:29:00;99454.03;;;13.42;64.35
15604;BME280;7902;49.042;9.092;2024-02-15T07:31:29;99455.72;;;13.43;64.56
15604;BME280;7902;49.042;9.092;2024-02-15T07:33:56;99464.22;;;13.47;64.37
15604;BME280;7902;49.042;9.092;2024-02-15T07:36:22;99451.19;;;13.45;64.77
15604;BME280;7902;49.042;9.092;2024-02-15T07:38:53;99449.50;;;13.44;64.99
15604;BME280;7902;49.042;9.092;2024-02-15T07:41:20;99454.28;;;13.50;64.85
15604;BME280;7902;49.042;9.092;2024-02-15T07:43:48;99450.81;;;13.50;64.57
15604;BME280;7902;49.042;9.092;2024-02-15T07:46:15;99446.59;;;13.47;64.54
15604;BME280;7902;49.042;9.092;2024-02-15T07:48:45;99452.13;;;13.44;64.70
15604;BME280;7902;49.042;9.092;2024-02-15T07:51:12;99445.41;;;13.40;65.55
15604;BME280;7902;49.042;9.092;2024-02-15T07:53:39;99444.47;;;13.41;65.18
15604;BME280;7902;49.042;9.092;2024-02-15T07:56:06;99445.41;;;13.40;65.20
15604;BME280;7902;49.042;9.092;2024-02-15T07:58:32;99441.47;;;13.46;64.50
15604;BME280;7902;49.042;9.092;2024-02-15T08:00:57;99441.22;;;13.38;65.06
15604;BME280;7902;49.042;9.092;2024-02-15T08:03:25;99435.09;;;13.48;64.66
15604;BME280;7902;49.042;9.092;2024-02-15T08:05:55;99426.13;;;13.51;64.64
15604;BME280;7902;49.042;9.092;2024-02-15T08:08:21;99438.22;;;13.53;64.64
15604;BME280;7902;49.042;9.092;2024-02-15T08:10:47;99435.56;;;13.53;63.86
15604;BME280;7902;49.042;9.092;2024-02-15T08:13:14;99431.75;;;13.46;65.59
15604;BME280;7902;49.042;9.092;2024-02-15T08:15:41;99431.13;;;13.54;64.55
15604;BME280;7902;49.042;9.092;2024-02-15T08:18:06;99431.13;;;13.54;64.77
15604;BME280;7902;49.042;9.092;2024-02-15T08:20:35;99426.69;;;13.54;64.87
15604;BME280;7902;49.042;9.092;2024-02-15T08:23:00;99425.38;;;13.49;64.66
15604;BME280;7902;49.042;9.092;2024-02-15T08:25:26;99427.66;;;13.42;64.85
15604;BME280;7902;49.042;9.092;2024-02-15T08:27:52;99426.13;;;13.51;64.72
15604;BME280;7902;49.042;9.092;2024-02-15T08:30:18;99425.13;;;13.52;64.84
15604;BME280;7902;49.042;9.092;2024-02-15T08:32:45;99419.25;;;13.48;65.13
15604;BME280;7902;49.042;9.092;2024-02-15T08:35:12;99417.84;;;13.55;63.96
15604;BME280;7902;49.042;9.092;2024-02-15T08:37:39;99415.06;;;13.57;64.85
15604;BME280;7902;49.042;9.092;2024-02-15T08:40:07;99424.53;;;13.59;64.36
15604;BME280;7902;49.042;9.092;2024-02-15T08:42:38;99418.78;;;13.54;64.78
15604;BME280;7902;49.042;9.092;2024-02-15T08:45:04;99415.91;;;13.57;64.57
15604;BME280;7902;49.042;9.092;2024-02-15T08:47:31;99419.25;;;13.59;64.47
15604;BME280;7902;49.042;9.092;2024-02-15T08:49:56;99417.56;;;13.58;64.62
15604;BME280;7902;49.042;9.092;2024-02-15T08:52:24;99424.44;;;13.50;65.16
15604;BME280;7902;49.042;9.092;2024-02-15T08:54:52;99426.69;;;13.54;64.00
15604;BME280;7902;49.042;9.092;2024-02-15T08:57:18;99421.16;;;13.57;64.56
15604;BME280;7902;49.042;9.092;2024-02-15T08:59:44;99417.56;;;13.58;65.27
15604;BME280;7902;49.042;9.092;2024-02-15T09:02:10;99415.91;;;13.57;65.00
15604;BME280;7902;49.042;9.092;2024-02-15T09:04:36;99418.06;;;13.52;65.25
15604;BME280;7902;49.042;9.092;2024-02-15T09:07:02;99418.91;;;13.53;64.72
15604;BME280;7902;49.042;9.092;2024-02-15T09:09:29;99417.84;;;13.55;64.26
15604;BME280;7902;49.042;9.092;2024-02-15T09:11:57;99410.88;;;13.54;64.64
15604;BME280;7902;49.042;9.092;2024-02-15T09:14:23;99415.66;;;13.60;64.66
15604;BME280;7902;49.042;9.092;2024-02-15T09:16:49;99412.31;;;13.58;64.14
15604;BME280;7902;49.042;9.092;2024-02-15T09:19:15;99414.22;;;13.56;65.28
15604;BME280;7902;49.042;9.092;2024-02-15T09:21:41;99414.69;;;13.61;64.24
15604;BME280;7902;49.042;9.092;2024-02-15T09:24:06;99408.94;;;13.68;64.34
15604;BME280;7902;49.042;9.092;2024-02-15T09:26:32;99407.38;;;13.65;64.51
15604;BME280;7902;49.042;9.092;2024-02-15T09:28:58;99408.94;;;13.56;65.29
15604;BME280;7902;49.042;9.092;2024-02-15T09:31:24;99407.97;;;13.57;65.39
15604;BME280;7902;49.042;9.092;2024-02-15T09:33:50;99405.69;;;13.64;65.20
15604;BME280;7902;49.042;9.092;2024-02-15T09:36:16;99402.69;;;13.69;64.94
15604;BME280;7902;49.042;9.092;2024-02-15T09:38:42;99396.84;;;13.65;64.79
15604;BME280;7902;49.042;9.092;2024-02-15T09:41:08;99397.16;;;13.72;65.09
15604;BME280;7902;49.042;9.092;2024-02-15T09:43:35;99398.84;;;13.73;64.75
15604;BME280;7902;49.042;9.092;2024-02-15T09:46:01;99388.28;;;13.73;63.85
15604;BME280;7902;49.042;9.092;2024-02-15T09:48:31;99390.56;;;13.66;65.13
15604;BME280;7902;49.042;9.092;2024-02-15T09:50:58;99395.63;;;13.69;64.75
15604;BME280;7902;49.042;9.092;2024-02-15T09:53:25;99396.78;;;13.76;64.17
15604;BME280;7902;49.042;9.092;2024-02-15T09:55:53;99397.38;;;13.80;64.18
15604;BME280;7902;49.042;9.092;2024-02-15T09:58:20;99391.66;;;13.75;64.61
15604;BME280;7902;49.042;9.092;2024-02-15T10:00:49;99386.94;;;13.78;64.16
15604;BME280;7902;49.042;9.092;2024-02-15T10:03:18;99385.84;;;13.81;64.60
15604;BME280;7902;49.042;9.092;2024-02-15T10:05:48;99382.84;;;13.85;63.89
15604;BME280;7902;49.042;9.092;2024-02-15T10:08:15;99385.47;;;13.85;63.60
15604;BME280;7902;49.042;9.092;2024-02-15T10:10:41;99383.44;;;13.89;64.04
15604;BME280;7902;49.042;9.092;2024-02-15T10:13:12;99377.66;;;13.95;63.83
15604;BME280;7902;49.042;9.092;2024-02-15T10:15:39;99385.09;;;13.90;63.66
15604;BME280;7902;49.042;9.092;2024-02-15T10:18:07;99384.72;;;13.94;63.21
15604;BME280;7902;49.042;9.092;2024-02-15T10:20:34;99376.69;;;13.96;63.79
15604;BME280;7902;49.042;9.092;2024-02-15T10:23:09;99366.97;;;13.96;63.51
15604;BME280;7902;49.042;9.092;2024-02-15T10:25:39;99366.59;;;14.01;63.63
15604;BME280;7902;49.042;9.092;2024-02-15T10:28:12;99367.66;;;13.98;63.50
15604;BME280;7902;49.042;9.092;2024-02-15T10:30:43;99363.00;;;14.02;63.31
15604;BME280;7902;49.042;9.092;2024-02-15T10:33:18;99362.38;;;13.98;64.06
15604;BME280;7902;49.042;9.092;2024-02-15T10:35:47;99358.66;;;14.01;64.37
15604;BME280;7902;49.042;9.092;2024-02-15T10:38:15;99359.41;;;14.03;63.70
15604;BME280;7902;49.042;9.092;2024-02-15T10:40:41;99343.28;;;14.06;63.48
15604;BME280;7902;49.042;9.092;2024-02-15T10:43:09;99356.75;;;14.03;63.52
15604;BME280;7902;49.042;9.092;2024-02-15T10:45:36;99345.09;;;14.05;63.43
15604;BME280;7902;49.042;9.092;2024-02-15T10:48:05;99347.09;;;14.13;63.66
15604;BME280;7902;49.042;9.092;2024-02-15T10:50:31;99348.66;;;14.16;63.76
15604;BME280;7902;49.042;9.092;2024-02-15T10:52:58;99343.94;;;14.19;63.21
15604;BME280;7902;49.042;9.092;2024-02-15T10:57:51;99335.56;;;14.14;64.53
15604;BME280;7902;49.042;9.092;2024-02-15T11:00:21;99330.22;;;14.25;62.85
15604;BME280;7902;49.042;9.092;2024-02-15T11:03:02;99325.63;;;14.27;62.73
15604;BME280;7902;49.042;9.092;2024-02-15T11:05:33;99331.75;;;14.28;63.58
15604;BME280;7902;49.042;9.092;2024-02-15T11:08:02;99325.41;;;14.30;63.46
15604;BME280;7902;49.042;9.092;2024-02-15T11:10:30;99316.47;;;14.31;63.38
15604;BME280;7902;49.042;9.092;2024-02-15T11:12:56;99305.81;;;14.33;63.39
15604;BME280;7902;49.042;9.092;2024-02-15T11:15:46;99304.47;;;14.38;63.93
15604;BME280;7902;49.042;9.092;2024-02-15T11:18:46;99296.56;;;14.38;63.39
15604;BME280;7902;49.042;9.092;2024-02-15T11:21:17;99291.38;;;14.37;63.86
15604;BME280;7902;49.042;9.092;2024-02-15T11:23:44;99294.63;;;14.40;63.81
15604;BME280;7902;49.042;9.092;2024-02-15T11:26:43;99294.63;;;14.40;63.63
15604;BME280;7902;49.042;9.092;2024-02-15T11:29:47;99284.94;;;14.50;63.43
15604;BME280;7902;49.042;9.092;2024-02-15T11:32:43;99281.31;;;14.52;62.67
15604;BME280;7902;49.042;9.092;2024-02-15T11:35:17;99281.66;;;14.58;63.88
15604;BME280;7902;49.042;9.092;2024-02-15T11:37:50;99281.66;;;14.58;64.07
15604;BME280;7902;49.042;9.092;2024-02-15T11:40:21;99280.69;;;14.59;64.21
15604;BME280;7902;49.042;9.092;2024-02-15T11:42:53;99273.31;;;14.63;63.92
15604;BME280;7902;49.042;9.092;2024-02-15T11:45:19;99271.59;;;14.52;64.20
15604;BME280;7902;49.042;9.092;2024-02-15T11:47:54;99271.91;;;14.59;64.38
15604;BME280;7902;49.042;9.092;2024-02-15T11:50:22;99273.84;;;14.57;63.77
15604;BME280;7902;49.042;9.092;2024-02-15T11:52:49;99275.00;;;14.64;64.75
15604;BME280;7902;49.042;9.092;2024-02-15T11:55:22;99273.03;;;14.66;64.50
15604;BME280;7902;49.042;9.092;2024-02-15T11:57:58;99269.16;;;14.70;64.48
15604;BME280;7902;49.042;9.092;2024-02-15T12:00:31;99276.84;;;14.73;64.07
15604;BME280;7902;49.042;9.092;2024-02-15T12:03:17;99272.91;;;14.67;63.71
15604;BME280;7902;49.042;9.092;2024-02-15T12:06:02;99264.06;;;14.78;64.10
15604;BME280;7902;49.042;9.092;2024-02-15T12:08:48;99266.72;;;14.78;63.51
15604;BME280;7902;49.042;9.092;2024-02-15T12:11:33;99263.91;;;14.79;63.39
15604;BME280;7902;49.042;9.092;2024-02-15T12:14:18;99261.75;;;14.94;63.94
15604;BME280;7902;49.042;9.092;2024-02-15T12:17:04;99251.00;;;14.86;63.49
15604;BME280;7902;49.042;9.092;2024-02-15T12:19:51;99251.97;;;14.85;64.65
15604;BME280;7902;49.042;9.092;2024-02-15T12:22:20;99240.72;;;14.92;63.88
15604;BME280;7902;49.042;9.092;2024-02-15T12:24:56;99236.25;;;14.93;63.10
15604;BME280;7902;49.042;9.092;2024-02-15T12:27:23;99234.47;;;14.93;63.31
15604;BME280;7902;49.042;9.092;2024-02-15T12:29:56;99235.81;;;14.88;63.70
15604;BME280;7902;49.042;9.092;2024-02-15T12:32:27;99232.66;;;14.94;63.92
15604;BME280;7902;49.042;9.092;2024-02-15T12:35:01;99225.28;;;14.98;63.49
15604;BME280;7902;49.042;9.092;2024-02-15T12:37:35;99226.28;;;14.97;63.32
15604;BME280;7902;49.042;9.092;2024-02-15T12:40:17;99216.66;;;14.96;63.74
15604;BME280;7902;49.042;9.092;2024-02-15T12:42:44;99202.72;;;14.93;63.21
15604;BME280;7902;49.042;9.092;2024-02-15T12:45:20;99205.66;;;14.90;63.69
15604;BME280;7902;49.042;9.092;2024-02-15T12:47:50;99199.97;;;14.95;63.53
15604;BME280;7902;49.042;9.092;2024-02-15T12:50:17;99189.25;;;14.97;64.46
15604;BME280;7902;49.042;9.092;2024-02-15T12:52:45;99190.78;;;14.99;64.09
15604;BME280;7902;49.042;9.092;2024-02-15T12:55:20;99183.28;;;15.04;63.18
15604;BME280;7902;49.042;9.092;2024-02-15T12:57:51;99178.94;;;15.03;63.69
15604;BME280;7902;49.042;9.092;2024-02-15T13:00:19;99173.41;;;15.06;63.56
15604;BME280;7902;49.042;9.092;2024-02-15T13:02:50;99165.19;;;15.09;64.43
15604;BME280;7902;49.042;9.092;2024-02-15T13:05:17;99159.91;;;15.09;63.30
15604;BME280;7902;49.042;9.092;2024-02-15T13:07:50;99163.09;;;15.22;64.00
15604;BME280;7902;49.042;9.092;2024-02-15T13:10:17;99160.88;;;15.37;63.16
15604;BME280;7902;49.042;9.092;2024-02-15T13:12:44;99147.09;;;15.43;62.50
15604;BME280;7902;49.042;9.092;2024-02-15T13:15:12;99157.38;;;15.36;63.64
15604;BME280;7902;49.042;9.092;2024-02-15T13:17:46;99151.41;;;15.34;63.89
15604;BME280;7902;49.042;9.092;2024-02-15T13:20:14;99150.00;;;15.30;63.70